createdAt,value
2018-10-07T00:00:51.813Z,12.10
2018-10-07T00:03:26.028Z,12.37
2018-10-07T00:06:00.041Z,13.30
2018-10-07T00:08:33.963Z,13.40
2018-10-07T00:11:09.630Z,11.33
2018-10-07T00:13:43.833Z,11.73
2018-10-07T00:16:17.642Z,11.07
2018-10-07T00:18:51.650Z,11.23
2018-10-07T00:21:25.457Z,11.10
2018-10-07T00:23:59.414Z,11.63
2018-10-07T00:26:34.915Z,11.40
2018-10-07T00:29:08.532Z,11.77
2018-10-07T00:31:48.401Z,12.40
2018-10-07T00:34:23.582Z,11.23
2018-10-07T00:36:58.457Z,10.17
2018-10-07T00:39:32.821Z,10.13
2018-10-07T00:42:07.856Z,11.23
2018-10-07T00:44:43.746Z,10.07
2018-10-07T00:47:18.033Z,10.47
2018-10-07T00:49:52.315Z,11.33
2018-10-07T00:52:27.101Z,8.87
2018-10-07T00:54:55.700Z,11.20
2018-10-07T00:57:24.301Z,10.90
2018-10-07T00:59:58.248Z,9.90
2018-10-07T01:02:32.141Z,11.60
2018-10-07T01:05:06.728Z,11.23
2018-10-07T01:07:42.364Z,12.10
2018-10-07T01:10:15.922Z,12.17
2018-10-07T01:12:50.320Z,12.63
2018-10-07T01:15:23.755Z,13.63
2018-10-07T01:17:59.537Z,12.30
2018-10-07T01:20:30.417Z,12.83
2018-10-07T01:23:05.496Z,12.10
2018-10-07T01:25:39.506Z,12.50
2018-10-07T01:28:13.855Z,12.97
2018-10-07T01:30:42.659Z,11.67
2018-10-07T01:33:17.140Z,12.33
2018-10-07T01:35:51.015Z,12.37
2018-10-07T01:38:25.424Z,11.53
2018-10-07T01:40:59.585Z,11.83
2018-10-07T01:43:33.568Z,11.20
2018-10-07T01:46:08.853Z,10.40
2018-10-07T01:48:42.882Z,11.40
2018-10-07T01:51:17.189Z,10.73
2018-10-07T01:53:52.826Z,10.70
2018-10-07T01:56:26.757Z,10.00
2018-10-07T01:59:01.726Z,12.80
2018-10-07T02:01:35.469Z,9.27
2018-10-07T02:04:04.174Z,11.23
2018-10-07T02:06:38.403Z,9.40
2018-10-07T02:09:13.738Z,11.77
2018-10-07T02:11:47.328Z,10.27
2018-10-07T02:14:21.991Z,10.60
2018-10-07T02:16:55.297Z,10.93
2018-10-07T02:19:30.036Z,10.17
2018-10-07T02:22:05.300Z,12.70
2018-10-07T02:24:39.415Z,10.63
2018-10-07T02:27:13.045Z,11.27
2018-10-07T02:29:47.164Z,9.30
2018-10-07T02:32:21.194Z,9.77
2018-10-07T02:34:55.813Z,11.70
2018-10-07T02:37:24.556Z,9.70
2018-10-07T02:39:59.850Z,10.00
2018-10-07T02:42:33.992Z,9.30
2018-10-07T02:45:07.700Z,9.30
2018-10-07T02:47:41.820Z,9.97
2018-10-07T02:50:23.966Z,9.43
2018-10-07T02:53:00.428Z,10.40
2018-10-07T02:55:36.990Z,10.93
2018-10-07T02:58:12.327Z,11.53
2018-10-07T03:00:46.136Z,12.17
2018-10-07T03:03:20.889Z,11.97
2018-10-07T03:05:56.740Z,11.67
2018-10-07T03:08:30.295Z,10.17
2018-10-07T03:10:58.829Z,11.73
2018-10-07T03:13:33.986Z,10.60
2018-10-07T03:16:08.982Z,11.07
2018-10-07T03:18:47.313Z,11.07
2018-10-07T03:21:26.510Z,11.03
2018-10-07T03:24:00.791Z,9.70
2018-10-07T03:26:34.613Z,11.13
2018-10-07T03:29:08.667Z,11.67
2018-10-07T03:31:42.523Z,10.43
2018-10-07T03:34:16.949Z,10.40
2018-10-07T03:36:51.463Z,10.70
2018-10-07T03:39:25.430Z,11.60
2018-10-07T03:41:59.553Z,12.07
2018-10-07T03:44:34.544Z,10.90
2018-10-07T03:47:09.057Z,10.73
2018-10-07T03:49:43.554Z,11.40
2018-10-07T03:52:17.892Z,10.67
2018-10-07T03:54:51.924Z,11.53
2018-10-07T03:57:25.775Z,11.57
2018-10-07T04:00:02.537Z,10.47
2018-10-07T04:02:36.465Z,11.10
2018-10-07T04:05:11.683Z,10.57
2018-10-07T04:07:46.016Z,15.07
2018-10-07T04:10:20.392Z,10.93
2018-10-07T04:12:54.487Z,10.73
2018-10-07T04:15:23.313Z,10.57
2018-10-07T04:17:57.374Z,11.33
2018-10-07T04:20:32.566Z,11.40
2018-10-07T04:23:07.072Z,11.60
2018-10-07T04:25:41.029Z,10.43
2018-10-07T04:28:15.155Z,13.47
2018-10-07T04:37:48.419Z,14.60
2018-10-07T04:40:22.852Z,13.73
2018-10-07T04:42:57.679Z,11.87
2018-10-07T04:45:32.027Z,12.57
2018-10-07T04:48:00.801Z,11.13
2018-10-07T04:50:34.482Z,11.53
2018-10-07T04:53:10.060Z,11.00
2018-10-07T04:55:44.494Z,11.03
2018-10-07T04:58:19.565Z,12.80
2018-10-07T05:00:53.920Z,11.13
2018-10-07T05:03:29.880Z,11.50
2018-10-07T05:06:05.271Z,11.73
2018-10-07T05:08:39.414Z,11.50
2018-10-07T05:11:14.642Z,12.27
2018-10-07T05:13:56.040Z,12.03
2018-10-07T05:16:41.903Z,11.77
2018-10-07T05:19:10.672Z,11.90
2018-10-07T05:21:39.252Z,11.50
2018-10-07T05:24:13.146Z,11.60
2018-10-07T05:26:46.982Z,12.00
2018-10-07T05:29:20.762Z,10.83
2018-10-07T05:31:55.678Z,11.53
2018-10-07T05:34:31.423Z,11.07
2018-10-07T05:37:07.090Z,11.00
2018-10-07T05:39:44.320Z,12.83
2018-10-07T05:42:21.351Z,11.40
2018-10-07T05:44:57.854Z,11.83
2018-10-07T05:47:34.855Z,11.93
2018-10-07T05:50:09.873Z,11.23
2018-10-07T05:52:38.532Z,11.70
2018-10-07T05:55:07.116Z,12.23
2018-10-07T05:57:41.111Z,12.37
2018-10-07T06:00:18.566Z,12.03
2018-10-07T06:02:54.464Z,11.23
2018-10-07T06:05:29.714Z,10.97
2018-10-07T06:08:04.195Z,12.93
2018-10-07T06:10:38.598Z,13.30
2018-10-07T06:13:12.934Z,12.53
2018-10-07T06:15:49.550Z,11.93
2018-10-07T06:18:24.140Z,11.03
2018-10-07T06:20:57.912Z,11.37
2018-10-07T06:23:33.169Z,12.63
2018-10-07T06:26:07.428Z,11.87
2018-10-07T06:28:42.082Z,12.73
2018-10-07T06:31:16.408Z,11.00
2018-10-07T06:33:52.175Z,11.30
2018-10-07T06:36:26.289Z,11.63
2018-10-07T06:39:01.200Z,14.03
2018-10-07T06:41:36.002Z,11.87
2018-10-07T06:44:09.766Z,12.57
2018-10-07T06:46:43.832Z,12.37
2018-10-07T06:49:18.277Z,11.90
2018-10-07T06:51:52.898Z,11.80
2018-10-07T06:54:27.095Z,11.57
2018-10-07T06:57:00.998Z,13.57
2018-10-07T06:59:37.210Z,13.73
2018-10-07T07:02:11.533Z,13.50
2018-10-07T07:04:46.527Z,13.77
2018-10-07T07:07:19.957Z,14.43
2018-10-07T07:09:57.214Z,13.30
2018-10-07T07:12:33.369Z,13.93
2018-10-07T07:15:07.454Z,13.17
2018-10-07T07:17:42.299Z,12.67
2018-10-07T07:20:16.752Z,11.43
2018-10-07T07:22:51.076Z,12.20
2018-10-07T07:25:25.949Z,11.97
2018-10-07T07:28:00.655Z,11.20
2018-10-07T07:30:34.660Z,12.53
2018-10-07T07:33:08.065Z,10.50
2018-10-07T07:35:42.489Z,9.17
2018-10-07T07:38:16.587Z,6.47
2018-10-07T07:40:51.625Z,6.70
2018-10-07T07:43:25.337Z,6.13
2018-10-07T07:45:59.397Z,7.77
2018-10-07T07:48:28.812Z,8.40
2018-10-07T07:50:58.528Z,8.80
2018-10-07T07:53:32.788Z,8.33
2018-10-07T07:56:11.809Z,8.37
2018-10-07T07:58:46.138Z,8.17
2018-10-07T08:01:20.157Z,8.00
2018-10-07T08:03:56.838Z,9.33
2018-10-07T08:06:31.440Z,19.93
2018-10-07T08:09:07.319Z,28.83
2018-10-07T08:11:42.687Z,29.50
2018-10-07T08:14:17.975Z,30.33
2018-10-07T08:16:51.693Z,33.93
2018-10-07T08:19:25.056Z,34.30
2018-10-07T08:21:54.062Z,34.40
2018-10-07T08:24:29.585Z,32.83
2018-10-07T08:27:05.579Z,34.20
2018-10-07T08:29:42.160Z,32.60
2018-10-07T08:32:16.925Z,33.00
2018-10-07T08:34:53.562Z,30.87
2018-10-07T08:37:27.029Z,28.50
2018-10-07T08:40:01.021Z,29.30
2018-10-07T08:42:35.140Z,28.73
2018-10-07T08:45:09.841Z,28.10
2018-10-07T08:47:46.216Z,28.27
2018-10-07T08:50:20.628Z,26.00
2018-10-07T08:52:54.766Z,25.63
2018-10-07T08:55:28.833Z,26.53
2018-10-07T08:58:03.664Z,25.63
2018-10-07T09:00:38.563Z,24.23
2018-10-07T09:03:16.004Z,27.13
2018-10-07T09:05:52.736Z,26.13
2018-10-07T09:08:22.118Z,25.67
2018-10-07T09:10:51.010Z,25.33
2018-10-07T09:13:19.653Z,26.20
2018-10-07T09:15:48.435Z,25.40
2018-10-07T09:18:17.665Z,25.67
2018-10-07T09:20:46.750Z,25.27
2018-10-07T09:23:15.866Z,25.23
2018-10-07T09:25:44.449Z,24.50
2018-10-07T09:28:13.337Z,25.67
2018-10-07T09:30:41.918Z,25.13
2018-10-07T09:33:10.493Z,23.37
2018-10-07T09:35:39.070Z,23.73
2018-10-07T09:38:08.004Z,24.00
2018-10-07T09:40:36.601Z,24.03
2018-10-07T09:43:05.181Z,24.17
2018-10-07T09:45:33.766Z,22.57
2018-10-07T09:48:02.362Z,24.63
2018-10-07T09:50:30.951Z,23.27
2018-10-07T09:52:59.772Z,23.60
2018-10-07T09:55:28.560Z,24.00
2018-10-07T09:57:57.435Z,24.07
2018-10-07T10:00:31.730Z,22.93
2018-10-07T10:03:00.281Z,22.60
2018-10-07T10:05:28.876Z,22.73
2018-10-07T10:08:04.592Z,22.83
2018-10-07T10:10:40.772Z,23.90
2018-10-07T10:13:18.244Z,22.73
2018-10-07T10:15:53.093Z,22.53
2018-10-07T10:18:41.826Z,21.83
2018-10-07T10:21:41.282Z,22.43
2018-10-07T10:24:37.401Z,21.80
2018-10-07T10:27:16.951Z,21.10
2018-10-07T10:29:53.939Z,22.17
2018-10-07T10:32:46.870Z,22.97
2018-10-07T10:35:33.765Z,20.53
2018-10-07T10:38:23.733Z,21.03
2018-10-07T10:41:17.863Z,21.47
2018-10-07T10:43:55.961Z,22.23
2018-10-07T10:47:09.326Z,20.27
2018-10-07T10:49:56.733Z,22.93
2018-10-07T10:52:34.355Z,21.83
2018-10-07T10:55:19.376Z,22.97
2018-10-07T10:57:58.105Z,23.30
2018-10-07T11:01:08.699Z,24.13
2018-10-07T11:03:57.944Z,26.00
2018-10-07T11:06:38.963Z,25.37
2018-10-07T11:09:32.753Z,24.33
2018-10-07T11:12:12.456Z,21.90
2018-10-07T11:15:02.380Z,23.60
2018-10-07T11:17:48.727Z,24.87
2018-10-07T11:20:29.613Z,24.37
2018-10-07T11:23:11.351Z,23.47
2018-10-07T11:26:24.844Z,23.53
2018-10-07T11:29:52.413Z,23.30
2018-10-07T11:32:38.778Z,22.60
2018-10-07T11:35:23.345Z,24.60
2018-10-07T11:38:08.003Z,22.33
2018-10-07T11:41:53.691Z,22.53
2018-10-07T11:45:39.945Z,22.00
2018-10-07T11:49:25.702Z,24.40
2018-10-07T11:54:04.677Z,24.57
2018-10-07T11:56:40.155Z,24.07
2018-10-07T11:59:13.889Z,22.93
2018-10-07T12:01:49.749Z,23.33
2018-10-07T12:04:27.204Z,23.43
2018-10-07T12:07:02.148Z,23.50
2018-10-07T12:09:36.500Z,23.73
2018-10-07T12:12:10.701Z,23.57
2018-10-07T12:14:45.283Z,22.90
2018-10-07T12:17:19.448Z,23.07
2018-10-07T12:19:56.188Z,24.33
2018-10-07T12:22:30.084Z,24.87
2018-10-07T12:25:04.550Z,23.97
2018-10-07T12:27:37.983Z,25.07
2018-10-07T12:30:13.131Z,25.80
2018-10-07T12:32:51.173Z,25.60
2018-10-07T12:35:28.612Z,26.17
2018-10-07T12:38:07.347Z,25.30
2018-10-07T12:40:46.139Z,25.37
2018-10-07T12:43:23.466Z,27.47
2018-10-07T12:46:03.039Z,27.97
2018-10-07T12:48:39.061Z,25.87
2018-10-07T12:51:15.503Z,26.63
2018-10-07T12:53:53.147Z,27.80
2018-10-07T12:56:28.040Z,30.23
2018-10-07T12:59:04.263Z,28.87
2018-10-07T13:01:37.918Z,28.07
2018-10-07T13:04:13.369Z,29.03
2018-10-07T13:06:50.515Z,30.13
2018-10-07T13:09:25.393Z,30.73
2018-10-07T13:12:03.902Z,31.37
2018-10-07T13:14:41.098Z,30.83
2018-10-07T13:17:13.970Z,30.57
2018-10-07T13:19:50.130Z,29.23
2018-10-07T13:22:24.681Z,30.60
2018-10-07T13:25:00.334Z,29.73
2018-10-07T13:27:33.993Z,30.67
2018-10-07T13:30:07.804Z,31.40
2018-10-07T13:32:40.326Z,32.50
2018-10-07T13:35:14.813Z,31.57
2018-10-07T13:37:48.705Z,29.13
2018-10-07T13:40:23.065Z,29.50
2018-10-07T13:42:59.218Z,31.73
2018-10-07T13:45:34.336Z,30.37
2018-10-07T13:48:09.079Z,30.10
2018-10-07T13:50:43.910Z,29.07
2018-10-07T13:53:21.340Z,31.07
2018-10-07T13:56:00.677Z,31.23
2018-10-07T13:58:36.762Z,30.43
2018-10-07T14:01:10.403Z,31.47
2018-10-07T14:03:46.188Z,31.27
2018-10-07T14:06:21.547Z,29.30
2018-10-07T14:08:55.397Z,29.07
2018-10-07T14:11:29.828Z,31.07
2018-10-07T14:14:04.641Z,29.37
2018-10-07T14:16:40.301Z,29.37
2018-10-07T14:19:15.842Z,27.57
2018-10-07T14:21:50.882Z,31.27
2018-10-07T14:24:24.773Z,32.57
2018-10-07T14:26:59.609Z,31.43
2018-10-07T14:29:35.142Z,32.30
2018-10-07T14:32:10.106Z,32.87
2018-10-07T14:34:45.185Z,34.53
2018-10-07T14:37:19.298Z,34.00
2018-10-07T14:39:54.364Z,32.67
2018-10-07T14:42:28.258Z,32.63
2018-10-07T14:45:02.060Z,32.57
2018-10-07T14:47:38.031Z,33.57
2018-10-07T14:50:11.634Z,30.50
2018-10-07T14:52:48.270Z,29.37
2018-10-07T14:55:17.117Z,28.83
2018-10-07T14:57:45.636Z,30.90
2018-10-07T15:00:14.184Z,27.37
2018-10-07T15:02:42.764Z,27.37
2018-10-07T15:05:11.313Z,28.43
2018-10-07T15:07:39.963Z,27.77
2018-10-07T15:10:08.552Z,29.93
2018-10-07T15:12:37.203Z,28.37
2018-10-07T15:15:05.873Z,28.00
2018-10-07T15:17:34.412Z,28.03
2018-10-07T15:20:03.017Z,27.50
2018-10-07T15:22:37.667Z,27.17
2018-10-07T15:25:09.265Z,29.00
2018-10-07T15:27:37.944Z,27.17
2018-10-07T15:30:06.808Z,27.07
2018-10-07T15:32:35.429Z,27.70
2018-10-07T15:35:04.032Z,26.07
2018-10-07T15:37:32.554Z,24.63
2018-10-07T15:40:01.121Z,22.33
2018-10-07T15:42:29.636Z,24.70
2018-10-07T15:44:58.194Z,23.57
2018-10-07T15:47:26.763Z,23.77
2018-10-07T15:49:55.396Z,24.33
2018-10-07T15:52:23.929Z,23.30
2018-10-07T15:54:52.484Z,22.97
2018-10-07T15:57:21.040Z,26.23
2018-10-07T15:59:49.597Z,23.63
2018-10-07T16:02:19.208Z,24.60
2018-10-07T16:04:47.789Z,23.23
2018-10-07T16:07:16.317Z,24.37
2018-10-07T16:09:45.707Z,22.63
2018-10-07T16:12:14.260Z,22.83
2018-10-07T16:14:42.924Z,22.90
2018-10-07T16:17:11.452Z,23.40
2018-10-07T16:19:40.064Z,22.20
2018-10-07T16:22:08.616Z,23.70
2018-10-07T16:24:37.169Z,24.63
2018-10-07T16:27:06.109Z,21.80
2018-10-07T16:29:39.811Z,23.37
2018-10-07T16:32:13.417Z,22.30
2018-10-07T16:34:50.095Z,22.37
2018-10-07T16:37:25.068Z,22.83
2018-10-07T16:39:59.662Z,23.17
2018-10-07T16:42:34.170Z,21.57
2018-10-07T16:45:07.029Z,22.87
2018-10-07T16:47:40.734Z,23.03
2018-10-07T16:50:15.313Z,21.90
2018-10-07T16:52:54.425Z,23.67
2018-10-07T16:55:29.414Z,23.57
2018-10-07T16:58:08.971Z,24.03
2018-10-07T17:00:43.007Z,24.57
2018-10-07T17:03:19.013Z,24.00
2018-10-07T17:05:55.430Z,23.90
2018-10-07T17:08:31.293Z,24.87
2018-10-07T17:11:10.081Z,22.97
2018-10-07T17:13:44.178Z,24.80
2018-10-07T17:16:19.468Z,23.67
2018-10-07T17:18:53.610Z,23.47
2018-10-07T17:21:28.146Z,26.20
2018-10-07T17:24:03.286Z,23.83
2018-10-07T17:26:36.423Z,23.87
2018-10-07T17:29:15.026Z,24.37
2018-10-07T17:34:31.700Z,23.47
2018-10-07T17:37:06.842Z,26.00
2018-10-07T17:39:40.722Z,25.30
2018-10-07T17:42:18.626Z,22.80
2018-10-07T17:44:58.157Z,23.80
2018-10-07T17:47:33.626Z,23.30
2018-10-07T17:50:08.226Z,23.93
2018-10-07T17:52:42.520Z,23.47
2018-10-07T17:55:17.166Z,22.83
2018-10-07T17:57:57.215Z,23.53
2018-10-07T18:00:28.597Z,22.70
2018-10-07T18:03:05.067Z,23.83
2018-10-07T18:05:44.447Z,21.07
2018-10-07T18:08:18.478Z,21.20
2018-10-07T18:10:55.456Z,22.53
2018-10-07T18:13:29.178Z,21.03
2018-10-07T18:16:07.246Z,21.60
2018-10-07T18:18:41.453Z,21.17
2018-10-07T18:21:17.263Z,21.50
2018-10-07T18:23:50.884Z,21.03
2018-10-07T18:26:24.894Z,20.37
2018-10-07T18:28:59.654Z,20.77
2018-10-07T18:31:34.319Z,20.17
2018-10-07T18:34:09.773Z,21.77
2018-10-07T18:36:44.109Z,21.50
2018-10-07T18:39:18.026Z,20.67
2018-10-07T18:41:53.664Z,19.33
2018-10-07T18:44:27.587Z,20.17
2018-10-07T18:47:03.499Z,20.67
2018-10-07T18:49:38.107Z,19.03
2018-10-07T18:52:13.596Z,18.37
2018-10-07T18:54:47.282Z,19.67
2018-10-07T18:57:23.959Z,19.87
2018-10-07T18:59:59.022Z,19.93
2018-10-07T19:02:43.642Z,19.13
2018-10-07T19:05:17.357Z,20.03
2018-10-07T19:07:52.326Z,20.10
2018-10-07T19:10:26.381Z,20.27
2018-10-07T19:13:00.137Z,19.80
2018-10-07T19:15:34.070Z,20.30
2018-10-07T19:18:08.682Z,19.87
2018-10-07T19:20:44.587Z,18.60
2018-10-07T19:23:15.952Z,19.50
2018-10-07T19:25:49.880Z,19.63
2018-10-07T19:28:23.786Z,19.83
2018-10-07T19:30:57.657Z,18.77
2018-10-07T19:33:32.383Z,19.30
2018-10-07T19:36:06.101Z,18.67
2018-10-07T19:38:40.344Z,18.87
2018-10-07T19:41:11.355Z,19.57
2018-10-07T19:43:44.940Z,19.97
2018-10-07T19:46:18.863Z,18.93
2018-10-07T19:48:54.267Z,19.63
2018-10-07T19:51:31.482Z,19.17
2018-10-07T19:54:18.872Z,20.40
2018-10-07T19:56:57.067Z,21.47
2018-10-07T19:59:33.435Z,19.23
2018-10-07T20:02:11.076Z,20.20
2018-10-07T20:04:49.574Z,19.50
2018-10-07T20:07:24.483Z,20.07
2018-10-07T20:10:04.581Z,17.73
2018-10-07T20:12:42.571Z,19.73
2018-10-07T20:15:19.831Z,19.93
2018-10-07T20:17:58.081Z,19.07
2018-10-07T20:20:38.731Z,17.27
2018-10-07T20:23:08.357Z,18.73
2018-10-07T20:25:37.700Z,19.40
2018-10-07T20:28:06.505Z,19.40
2018-10-07T20:30:36.119Z,20.33
2018-10-07T20:33:04.957Z,19.03
2018-10-07T20:35:33.938Z,19.47
2018-10-07T20:38:02.548Z,21.33
2018-10-07T20:40:31.756Z,20.37
2018-10-07T20:43:00.601Z,21.40
2018-10-07T20:45:29.584Z,20.23
2018-10-07T20:47:58.152Z,19.30
2018-10-07T20:50:26.881Z,19.43
2018-10-07T20:52:55.873Z,19.57
2018-10-07T20:55:24.665Z,19.97
2018-10-07T20:57:53.755Z,18.73
2018-10-07T21:00:22.629Z,20.27
2018-10-07T21:02:51.752Z,18.80
2018-10-07T21:05:20.296Z,18.77
2018-10-07T21:07:49.152Z,18.60
2018-10-07T21:10:18.009Z,16.93
2018-10-07T21:12:46.584Z,17.67
2018-10-07T21:15:15.112Z,17.43
2018-10-07T21:17:43.816Z,17.83
2018-10-07T21:20:12.381Z,17.93
2018-10-07T21:22:41.356Z,17.87
2018-10-07T21:25:09.972Z,17.87
2018-10-07T21:27:38.570Z,17.63
2018-10-07T21:30:07.320Z,17.03
2018-10-07T21:32:35.841Z,18.00
2018-10-07T21:35:04.446Z,16.23
2018-10-07T21:37:33.118Z,17.37
2018-10-07T21:40:02.512Z,19.23
2018-10-07T21:42:31.053Z,20.43
2018-10-07T21:44:59.703Z,19.93
2018-10-07T21:47:28.257Z,19.07
2018-10-07T21:49:58.051Z,21.07
2018-10-07T21:52:28.150Z,21.53
2018-10-07T21:54:56.770Z,21.33
2018-10-07T21:57:29.878Z,21.83
2018-10-07T21:59:58.823Z,18.40
2018-10-07T22:02:27.789Z,16.90
2018-10-07T22:04:56.343Z,17.43
2018-10-07T22:07:24.908Z,17.60
2018-10-07T22:09:53.495Z,17.67
2018-10-07T22:12:22.157Z,18.70
2018-10-07T22:14:50.685Z,16.80
2018-10-07T22:17:19.252Z,16.50
2018-10-07T22:19:47.903Z,16.10
2018-10-07T22:22:16.435Z,16.00
2018-10-07T22:24:44.990Z,15.77
2018-10-07T22:27:13.569Z,15.97
2018-10-07T22:29:42.118Z,19.63
2018-10-07T22:32:10.693Z,17.23
2018-10-07T22:34:39.247Z,16.83
2018-10-07T22:37:07.820Z,17.87
2018-10-07T22:39:36.356Z,16.77
2018-10-07T22:42:04.905Z,17.07
2018-10-07T22:44:33.484Z,16.63
2018-10-07T22:47:02.137Z,18.17
2018-10-07T22:49:30.733Z,15.47
2018-10-07T22:51:59.286Z,18.63
2018-10-07T22:54:27.874Z,17.73
2018-10-07T22:56:56.437Z,18.97
2018-10-07T22:59:25.021Z,19.30
2018-10-07T23:01:53.619Z,16.40
2018-10-07T23:04:22.203Z,17.17
2018-10-07T23:06:50.760Z,19.50
2018-10-07T23:09:19.339Z,17.70
2018-10-07T23:11:47.940Z,18.30
2018-10-07T23:14:16.592Z,18.20
2018-10-07T23:16:45.128Z,17.53
2018-10-07T23:19:13.680Z,19.00
2018-10-07T23:21:42.240Z,17.70
2018-10-07T23:24:11.569Z,18.63
2018-10-07T23:26:40.133Z,19.90
2018-10-07T23:29:08.659Z,18.33
2018-10-07T23:31:37.217Z,19.27
2018-10-07T23:34:05.753Z,19.27
2018-10-07T23:36:34.313Z,16.27
2018-10-07T23:39:02.848Z,18.63
2018-10-07T23:41:31.442Z,17.40
2018-10-07T23:43:59.958Z,17.57
2018-10-07T23:46:28.502Z,18.33
2018-10-07T23:48:57.008Z,16.67
2018-10-07T23:51:25.544Z,17.53
2018-10-07T23:53:54.128Z,16.83
2018-10-07T23:56:22.715Z,16.47
2018-10-07T23:58:51.325Z,15.67
